sensor_id;sensor_type;location;lat;lon;timestamp;P1;durP1;ratioP1;P2;durP2;ratioP2
2039;SDS011;1025;42.686;23.350;2023-12-20T00:02:19;103.78;;;75.78;;
2039;SDS011;1025;42.686;23.350;2023-12-20T00:04:45;104.63;;;78.32;;
2039;SDS011;1025;42.686;23.350;2023-12-20T00:07:12;113.88;;;78.22;;
2039;SDS011;1025;42.686;23.350;2023-12-20T00:09:38;110.20;;;78.47;;
2039;SDS011;1025;42.686;23.350;2023-12-20T00:12:05;102.20;;;75.90;;
2039;SDS011;1025;42.686;23.350;2023-12-20T00:14:32;117.00;;;78.32;;
2039;SDS011;1025;42.686;23.350;2023-12-20T00:16:58;102.10;;;74.28;;
2039;SDS011;1025;42.686;23.350;2023-12-20T00:19:26;124.83;;;79.27;;
2039;SDS011;1025;42.686;23.350;2023-12-20T00:21:52;109.30;;;78.15;;
2039;SDS011;1025;42.686;23.350;2023-12-20T00:24:19;102.03;;;81.35;;
2039;SDS011;1025;42.686;23.350;2023-12-20T00:26:45;109.55;;;76.78;;
2039;SDS011;1025;42.686;23.350;2023-12-20T00:29:12;105.50;;;74.97;;
2039;SDS011;1025;42.686;23.350;2023-12-20T00:31:38;108.00;;;80.20;;
2039;SDS011;1025;42.686;23.350;2023-12-20T00:34:05;117.30;;;81.03;;
2039;SDS011;1025;42.686;23.350;2023-12-20T00:36:33;106.87;;;79.47;;
2039;SDS011;1025;42.686;23.350;2023-12-20T00:38:59;105.50;;;73.82;;
2039;SDS011;1025;42.686;23.350;2023-12-20T00:41:26;98.35;;;68.78;;
2039;SDS011;1025;42.686;23.350;2023-12-20T00:43:52;105.75;;;70.43;;
2039;SDS011;1025;42.686;23.350;2023-12-20T00:46:19;96.25;;;72.82;;
2039;SDS011;1025;42.686;23.350;2023-12-20T00:48:45;107.67;;;73.57;;
2039;SDS011;1025;42.686;23.350;2023-12-20T00:51:12;114.85;;;74.88;;
2039;SDS011;1025;42.686;23.350;2023-12-20T00:53:39;102.72;;;73.32;;
2039;SDS011;1025;42.686;23.350;2023-12-20T00:56:06;97.00;;;71.53;;
2039;SDS011;1025;42.686;23.350;2023-12-20T00:58:33;96.13;;;67.18;;
2039;SDS011;1025;42.686;23.350;2023-12-20T01:00:59;98.50;;;70.80;;
2039;SDS011;1025;42.686;23.350;2023-12-20T01:03:26;93.80;;;64.05;;
2039;SDS011;1025;42.686;23.350;2023-12-20T01:05:52;97.88;;;69.65;;
2039;SDS011;1025;42.686;23.350;2023-12-20T01:08:19;112.35;;;80.05;;
2039;SDS011;1025;42.686;23.350;2023-12-20T01:10:47;175.88;;;124.97;;
2039;SDS011;1025;42.686;23.350;2023-12-20T01:13:13;169.17;;;121.13;;
2039;SDS011;1025;42.686;23.350;2023-12-20T01:15:40;196.00;;;138.52;;
2039;SDS011;1025;42.686;23.350;2023-12-20T01:18:06;205.85;;;138.95;;
2039;SDS011;1025;42.686;23.350;2023-12-20T01:20:33;212.88;;;144.55;;
2039;SDS011;1025;42.686;23.350;2023-12-20T01:22:59;213.23;;;144.70;;
2039;SDS011;1025;42.686;23.350;2023-12-20T01:25:26;204.43;;;139.00;;
2039;SDS011;1025;42.686;23.350;2023-12-20T01:27:54;205.70;;;143.05;;
2039;SDS011;1025;42.686;23.350;2023-12-20T01:30:20;214.35;;;140.13;;
2039;SDS011;1025;42.686;23.350;2023-12-20T01:32:47;195.63;;;135.70;;
2039;SDS011;1025;42.686;23.350;2023-12-20T01:35:13;185.48;;;132.90;;
2039;SDS011;1025;42.686;23.350;2023-12-20T01:37:40;178.00;;;121.70;;
2039;SDS011;1025;42.686;23.350;2023-12-20T01:40:07;186.30;;;131.70;;
2039;SDS011;1025;42.686;23.350;2023-12-20T01:42:34;190.77;;;132.30;;
2039;SDS011;1025;42.686;23.350;2023-12-20T01:45:02;180.57;;;122.95;;
2039;SDS011;1025;42.686;23.350;2023-12-20T01:47:28;184.15;;;124.38;;
2039;SDS011;1025;42.686;23.350;2023-12-20T01:49:55;176.85;;;125.07;;
2039;SDS011;1025;42.686;23.350;2023-12-20T01:52:22;171.77;;;125.10;;
2039;SDS011;1025;42.686;23.350;2023-12-20T01:54:49;169.85;;;121.82;;
2039;SDS011;1025;42.686;23.350;2023-12-20T01:57:15;175.02;;;125.13;;
2039;SDS011;1025;42.686;23.350;2023-12-20T01:59:42;178.20;;;121.72;;
2039;SDS011;1025;42.686;23.350;2023-12-20T02:02:10;176.30;;;125.97;;
2039;SDS011;1025;42.686;23.350;2023-12-20T02:04:37;177.70;;;125.05;;
2039;SDS011;1025;42.686;23.350;2023-12-20T02:07:04;157.18;;;108.95;;
2039;SDS011;1025;42.686;23.350;2023-12-20T02:09:30;165.60;;;116.75;;
2039;SDS011;1025;42.686;23.350;2023-12-20T02:11:58;187.35;;;127.47;;
2039;SDS011;1025;42.686;23.350;2023-12-20T02:14:25;171.40;;;124.70;;
2039;SDS011;1025;42.686;23.350;2023-12-20T02:16:51;176.97;;;119.23;;
2039;SDS011;1025;42.686;23.350;2023-12-20T02:19:19;170.85;;;116.35;;
2039;SDS011;1025;42.686;23.350;2023-12-20T02:21:47;162.25;;;107.07;;
2039;SDS011;1025;42.686;23.350;2023-12-20T02:24:14;156.90;;;108.82;;
2039;SDS011;1025;42.686;23.350;2023-12-20T02:26:40;157.82;;;101.50;;
2039;SDS011;1025;42.686;23.350;2023-12-20T02:29:07;151.27;;;99.95;;
2039;SDS011;1025;42.686;23.350;2023-12-20T02:31:33;145.80;;;97.18;;
2039;SDS011;1025;42.686;23.350;2023-12-20T02:33:59;148.38;;;104.63;;
2039;SDS011;1025;42.686;23.350;2023-12-20T02:36:25;150.03;;;96.40;;
2039;SDS011;1025;42.686;23.350;2023-12-20T02:38:53;137.25;;;91.28;;
2039;SDS011;1025;42.686;23.350;2023-12-20T02:41:19;134.23;;;94.80;;
2039;SDS011;1025;42.686;23.350;2023-12-20T02:43:46;140.97;;;94.30;;
2039;SDS011;1025;42.686;23.350;2023-12-20T02:46:13;127.15;;;83.85;;
2039;SDS011;1025;42.686;23.350;2023-12-20T02:48:40;129.68;;;87.93;;
2039;SDS011;1025;42.686;23.350;2023-12-20T02:51:07;131.95;;;85.63;;
2039;SDS011;1025;42.686;23.350;2023-12-20T02:53:33;128.40;;;85.47;;
2039;SDS011;1025;42.686;23.350;2023-12-20T02:56:01;125.53;;;78.97;;
2039;SDS011;1025;42.686;23.350;2023-12-20T02:58:28;109.50;;;74.95;;
2039;SDS011;1025;42.686;23.350;2023-12-20T03:00:54;117.43;;;79.25;;
2039;SDS011;1025;42.686;23.350;2023-12-20T03:03:21;107.40;;;73.40;;
2039;SDS011;1025;42.686;23.350;2023-12-20T03:05:47;105.72;;;72.72;;
2039;SDS011;1025;42.686;23.350;2023-12-20T03:08:13;105.95;;;68.90;;
2039;SDS011;1025;42.686;23.350;2023-12-20T03:10:40;108.47;;;66.93;;
2039;SDS011;1025;42.686;23.350;2023-12-20T03:13:08;108.18;;;69.75;;
2039;SDS011;1025;42.686;23.350;2023-12-20T03:15:34;103.50;;;66.53;;
2039;SDS011;1025;42.686;23.350;2023-12-20T03:18:01;104.47;;;64.50;;
2039;SDS011;1025;42.686;23.350;2023-12-20T03:20:27;109.30;;;62.97;;
2039;SDS011;1025;42.686;23.350;2023-12-20T03:22:54;95.07;;;64.25;;
2039;SDS011;1025;42.686;23.350;2023-12-20T03:25:20;100.43;;;66.45;;
2039;SDS011;1025;42.686;23.350;2023-12-20T03:27:47;111.10;;;67.65;;
2039;SDS011;1025;42.686;23.350;2023-12-20T03:30:14;97.13;;;63.15;;
2039;SDS011;1025;42.686;23.350;2023-12-20T03:32:41;110.07;;;66.00;;
2039;SDS011;1025;42.686;23.350;2023-12-20T03:35:07;101.68;;;63.58;;
2039;SDS011;1025;42.686;23.350;2023-12-20T03:37:34;101.45;;;64.60;;
2039;SDS011;1025;42.686;23.350;2023-12-20T03:40:00;101.22;;;67.82;;
2039;SDS011;1025;42.686;23.350;2023-12-20T03:42:27;105.55;;;68.63;;
2039;SDS011;1025;42.686;23.350;2023-12-20T03:44:53;110.00;;;66.95;;
2039;SDS011;1025;42.686;23.350;2023-12-20T03:47:21;99.45;;;62.13;;
2039;SDS011;1025;42.686;23.350;2023-12-20T03:49:48;99.60;;;65.80;;
2039;SDS011;1025;42.686;23.350;2023-12-20T03:52:14;96.97;;;59.17;;
2039;SDS011;1025;42.686;23.350;2023-12-20T03:54:41;97.22;;;56.50;;
2039;SDS011;1025;42.686;23.350;2023-12-20T03:57:07;114.28;;;57.30;;
2039;SDS011;1025;42.686;23.350;2023-12-20T03:59:34;109.07;;;59.75;;
2039;SDS011;1025;42.686;23.350;2023-12-20T04:02:01;113.25;;;58.65;;
2039;SDS011;1025;42.686;23.350;2023-12-20T04:04:29;106.32;;;58.58;;
2039;SDS011;1025;42.686;23.350;2023-12-20T04:06:55;102.28;;;57.40;;
2039;SDS011;1025;42.686;23.350;2023-12-20T04:09:22;109.20;;;62.88;;
2039;SDS011;1025;42.686;23.350;2023-12-20T04:11:48;104.18;;;59.90;;
2039;SDS011;1025;42.686;23.350;2023-12-20T04:14:14;114.35;;;61.17;;
2039;SDS011;1025;42.686;23.350;2023-12-20T04:16:41;136.70;;;68.00;;
2039;SDS011;1025;42.686;23.350;2023-12-20T04:19:08;133.02;;;62.67;;
2039;SDS011;1025;42.686;23.350;2023-12-20T04:21:36;118.72;;;61.05;;
2039;SDS011;1025;42.686;23.350;2023-12-20T04:24:03;134.75;;;59.40;;
2039;SDS011;1025;42.686;23.350;2023-12-20T04:26:29;116.22;;;57.85;;
2039;SDS011;1025;42.686;23.350;2023-12-20T04:28:56;96.45;;;58.38;;
2039;SDS011;1025;42.686;23.350;2023-12-20T04:31:22;94.22;;;56.33;;
2039;SDS011;1025;42.686;23.350;2023-12-20T04:33:49;102.57;;;59.38;;
2039;SDS011;1025;42.686;23.350;2023-12-20T04:36:15;102.50;;;58.92;;
2039;SDS011;1025;42.686;23.350;2023-12-20T04:38:43;109.53;;;61.85;;
2039;SDS011;1025;42.686;23.350;2023-12-20T04:41:10;107.15;;;64.97;;
2039;SDS011;1025;42.686;23.350;2023-12-20T04:43:40;100.05;;;64.75;;
2039;SDS011;1025;42.686;23.350;2023-12-20T04:46:07;94.78;;;62.13;;
2039;SDS011;1025;42.686;23.350;2023-12-20T04:48:33;103.57;;;67.72;;
2039;SDS011;1025;42.686;23.350;2023-12-20T04:51:00;105.07;;;69.70;;
2039;SDS011;1025;42.686;23.350;2023-12-20T04:53:26;104.20;;;60.63;;
2039;SDS011;1025;42.686;23.350;2023-12-20T04:55:54;100.53;;;65.43;;
2039;SDS011;1025;42.686;23.350;2023-12-20T04:58:20;100.28;;;67.50;;
2039;SDS011;1025;42.686;23.350;2023-12-20T05:00:47;94.20;;;59.88;;
2039;SDS011;1025;42.686;23.350;2023-12-20T05:03:13;99.88;;;63.28;;
2039;SDS011;1025;42.686;23.350;2023-12-20T05:05:40;93.07;;;62.25;;
2039;SDS011;1025;42.686;23.350;2023-12-20T05:08:06;98.70;;;59.00;;
2039;SDS011;1025;42.686;23.350;2023-12-20T05:10:33;91.43;;;57.97;;
2039;SDS011;1025;42.686;23.350;2023-12-20T05:13:01;84.80;;;57.28;;
2039;SDS011;1025;42.686;23.350;2023-12-20T05:15:28;104.20;;;61.45;;
2039;SDS011;1025;42.686;23.350;2023-12-20T05:17:55;100.97;;;63.08;;
2039;SDS011;1025;42.686;23.350;2023-12-20T05:20:21;108.22;;;65.22;;
2039;SDS011;1025;42.686;23.350;2023-12-20T05:22:48;81.35;;;51.08;;
2039;SDS011;1025;42.686;23.350;2023-12-20T05:25:15;88.88;;;53.70;;
2039;SDS011;1025;42.686;23.350;2023-12-20T05:27:42;86.47;;;53.80;;
2039;SDS011;1025;42.686;23.350;2023-12-20T05:30:10;88.07;;;56.75;;
2039;SDS011;1025;42.686;23.350;2023-12-20T05:32:37;83.35;;;49.92;;
2039;SDS011;1025;42.686;23.350;2023-12-20T05:35:04;94.40;;;57.67;;
2039;SDS011;1025;42.686;23.350;2023-12-20T05:37:31;113.22;;;62.75;;
2039;SDS011;1025;42.686;23.350;2023-12-20T05:39:57;107.90;;;67.75;;
2039;SDS011;1025;42.686;23.350;2023-12-20T05:42:24;110.68;;;64.45;;
2039;SDS011;1025;42.686;23.350;2023-12-20T05:44:51;114.28;;;63.70;;
2039;SDS011;1025;42.686;23.350;2023-12-20T05:47:19;106.63;;;57.85;;
2039;SDS011;1025;42.686;23.350;2023-12-20T05:49:45;114.38;;;58.78;;
2039;SDS011;1025;42.686;23.350;2023-12-20T05:52:12;112.70;;;61.28;;
2039;SDS011;1025;42.686;23.350;2023-12-20T05:54:39;104.47;;;60.10;;
2039;SDS011;1025;42.686;23.350;2023-12-20T05:57:05;112.05;;;65.70;;
2039;SDS011;1025;42.686;23.350;2023-12-20T05:59:32;107.13;;;59.58;;
2039;SDS011;1025;42.686;23.350;2023-12-20T06:01:58;87.70;;;54.85;;
2039;SDS011;1025;42.686;23.350;2023-12-20T06:04:26;86.72;;;56.45;;
2039;SDS011;1025;42.686;23.350;2023-12-20T06:06:53;123.68;;;57.15;;
2039;SDS011;1025;42.686;23.350;2023-12-20T06:09:19;98.13;;;54.47;;
2039;SDS011;1025;42.686;23.350;2023-12-20T06:11:46;100.28;;;51.85;;
2039;SDS011;1025;42.686;23.350;2023-12-20T06:14:13;87.43;;;54.70;;
2039;SDS011;1025;42.686;23.350;2023-12-20T06:16:39;74.57;;;49.80;;
2039;SDS011;1025;42.686;23.350;2023-12-20T06:19:06;90.28;;;50.28;;
2039;SDS011;1025;42.686;23.350;2023-12-20T06:21:34;88.28;;;54.97;;
2039;SDS011;1025;42.686;23.350;2023-12-20T06:24:00;84.75;;;52.92;;
2039;SDS011;1025;42.686;23.350;2023-12-20T06:26:27;81.78;;;56.08;;
2039;SDS011;1025;42.686;23.350;2023-12-20T06:28:53;83.68;;;58.28;;
2039;SDS011;1025;42.686;23.350;2023-12-20T06:31:20;96.63;;;61.30;;
2039;SDS011;1025;42.686;23.350;2023-12-20T06:33:47;89.78;;;58.97;;
2039;SDS011;1025;42.686;23.350;2023-12-20T06:36:15;98.13;;;59.25;;
2039;SDS011;1025;42.686;23.350;2023-12-20T06:38:43;86.28;;;54.17;;
2039;SDS011;1025;42.686;23.350;2023-12-20T06:41:12;94.40;;;55.88;;
2039;SDS011;1025;42.686;23.350;2023-12-20T06:43:39;89.40;;;46.58;;
2039;SDS011;1025;42.686;23.350;2023-12-20T06:46:06;76.82;;;48.35;;
2039;SDS011;1025;42.686;23.350;2023-12-20T06:48:32;70.03;;;44.13;;
2039;SDS011;1025;42.686;23.350;2023-12-20T06:50:59;77.88;;;47.65;;
2039;SDS011;1025;42.686;23.350;2023-12-20T06:53:27;64.45;;;44.70;;
2039;SDS011;1025;42.686;23.350;2023-12-20T06:55:55;71.07;;;49.45;;
2039;SDS011;1025;42.686;23.350;2023-12-20T06:58:22;69.65;;;48.17;;
2039;SDS011;1025;42.686;23.350;2023-12-20T07:00:50;70.97;;;46.45;;
2039;SDS011;1025;42.686;23.350;2023-12-20T07:03:16;73.60;;;51.92;;
2039;SDS011;1025;42.686;23.350;2023-12-20T07:05:43;74.03;;;49.15;;
2039;SDS011;1025;42.686;23.350;2023-12-20T07:08:10;84.45;;;58.70;;
2039;SDS011;1025;42.686;23.350;2023-12-20T07:10:39;100.95;;;60.30;;
2039;SDS011;1025;42.686;23.350;2023-12-20T07:13:10;90.70;;;58.83;;
2039;SDS011;1025;42.686;23.350;2023-12-20T07:15:37;99.15;;;61.60;;
2039;SDS011;1025;42.686;23.350;2023-12-20T07:18:04;107.72;;;64.40;;
2039;SDS011;1025;42.686;23.350;2023-12-20T07:20:31;150.93;;;65.93;;
2039;SDS011;1025;42.686;23.350;2023-12-20T07:22:58;90.90;;;61.22;;
2039;SDS011;1025;42.686;23.350;2023-12-20T07:25:24;185.10;;;69.93;;
2039;SDS011;1025;42.686;23.350;2023-12-20T07:27:51;106.85;;;69.80;;
2039;SDS011;1025;42.686;23.350;2023-12-20T07:30:19;106.18;;;65.20;;
2039;SDS011;1025;42.686;23.350;2023-12-20T07:32:46;106.30;;;63.60;;
2039;SDS011;1025;42.686;23.350;2023-12-20T07:35:12;111.32;;;65.00;;
2039;SDS011;1025;42.686;23.350;2023-12-20T07:37:40;102.07;;;59.63;;
2039;SDS011;1025;42.686;23.350;2023-12-20T07:40:10;101.50;;;64.23;;
2039;SDS011;1025;42.686;23.350;2023-12-20T07:42:38;96.20;;;62.45;;
2039;SDS011;1025;42.686;23.350;2023-12-20T07:45:05;100.75;;;61.42;;
2039;SDS011;1025;42.686;23.350;2023-12-20T07:47:33;92.80;;;57.72;;
2039;SDS011;1025;42.686;23.350;2023-12-20T07:50:00;92.85;;;55.90;;
2039;SDS011;1025;42.686;23.350;2023-12-20T07:52:27;97.10;;;60.13;;
2039;SDS011;1025;42.686;23.350;2023-12-20T07:54:53;99.07;;;55.72;;
2039;SDS011;1025;42.686;23.350;2023-12-20T07:57:20;101.87;;;60.23;;
2039;SDS011;1025;42.686;23.350;2023-12-20T07:59:47;91.20;;;59.53;;
2039;SDS011;1025;42.686;23.350;2023-12-20T08:02:14;124.97;;;62.60;;
2039;SDS011;1025;42.686;23.350;2023-12-20T08:04:41;113.95;;;63.38;;
2039;SDS011;1025;42.686;23.350;2023-12-20T08:07:08;257.33;;;75.13;;
2039;SDS011;1025;42.686;23.350;2023-12-20T08:09:34;110.83;;;62.53;;
2039;SDS011;1025;42.686;23.350;2023-12-20T08:12:02;91.23;;;54.70;;
2039;SDS011;1025;42.686;23.350;2023-12-20T08:14:28;89.80;;;57.90;;
2039;SDS011;1025;42.686;23.350;2023-12-20T08:16:54;82.20;;;54.77;;
2039;SDS011;1025;42.686;23.350;2023-12-20T08:19:21;83.00;;;51.43;;
2039;SDS011;1025;42.686;23.350;2023-12-20T08:21:49;79.87;;;48.67;;
2039;SDS011;1025;42.686;23.350;2023-12-20T08:24:15;64.40;;;46.40;;
2039;SDS011;1025;42.686;23.350;2023-12-20T08:26:42;82.97;;;48.77;;
2039;SDS011;1025;42.686;23.350;2023-12-20T08:29:08;77.87;;;53.50;;
2039;SDS011;1025;42.686;23.350;2023-12-20T08:31:35;71.60;;;49.07;;
2039;SDS011;1025;42.686;23.350;2023-12-20T08:34:02;75.43;;;50.50;;
2039;SDS011;1025;42.686;23.350;2023-12-20T08:36:28;75.93;;;51.23;;
2039;SDS011;1025;42.686;23.350;2023-12-20T08:38:56;76.13;;;52.43;;
2039;SDS011;1025;42.686;23.350;2023-12-20T08:41:23;81.63;;;51.50;;
2039;SDS011;1025;42.686;23.350;2023-12-20T08:43:49;72.05;;;50.78;;
2039;SDS011;1025;42.686;23.350;2023-12-20T08:46:16;76.63;;;47.23;;
2039;SDS011;1025;42.686;23.350;2023-12-20T08:48:42;63.50;;;44.50;;
2039;SDS011;1025;42.686;23.350;2023-12-20T08:51:10;105.93;;;50.10;;
2039;SDS011;1025;42.686;23.350;2023-12-20T08:53:36;77.73;;;46.87;;
2039;SDS011;1025;42.686;23.350;2023-12-20T08:56:05;94.95;;;51.47;;
2039;SDS011;1025;42.686;23.350;2023-12-20T08:58:32;87.20;;;51.65;;
2039;SDS011;1025;42.686;23.350;2023-12-20T09:00:58;75.67;;;47.27;;
2039;SDS011;1025;42.686;23.350;2023-12-20T09:03:25;100.05;;;53.28;;
2039;SDS011;1025;42.686;23.350;2023-12-20T09:05:51;83.38;;;53.00;;
2039;SDS011;1025;42.686;23.350;2023-12-20T09:08:18;95.67;;;57.30;;
2039;SDS011;1025;42.686;23.350;2023-12-20T09:10:44;100.22;;;58.78;;
2039;SDS011;1025;42.686;23.350;2023-12-20T09:13:12;100.17;;;59.57;;
2039;SDS011;1025;42.686;23.350;2023-12-20T09:15:39;88.00;;;52.77;;
2039;SDS011;1025;42.686;23.350;2023-12-20T09:18:05;109.23;;;56.23;;
2039;SDS011;1025;42.686;23.350;2023-12-20T09:20:32;109.23;;;56.20;;
2039;SDS011;1025;42.686;23.350;2023-12-20T09:22:59;87.07;;;55.53;;
2039;SDS011;1025;42.686;23.350;2023-12-20T09:25:25;101.73;;;57.30;;
2039;SDS011;1025;42.686;23.350;2023-12-20T09:27:52;113.20;;;58.20;;
2039;SDS011;1025;42.686;23.350;2023-12-20T09:30:20;99.03;;;55.40;;
2039;SDS011;1025;42.686;23.350;2023-12-20T09:32:46;76.70;;;44.17;;
2039;SDS011;1025;42.686;23.350;2023-12-20T09:35:13;87.40;;;48.00;;
2039;SDS011;1025;42.686;23.350;2023-12-20T09:37:40;74.17;;;42.93;;
2039;SDS011;1025;42.686;23.350;2023-12-20T09:40:10;62.33;;;39.23;;
2039;SDS011;1025;42.686;23.350;2023-12-20T09:42:37;63.20;;;43.10;;
2039;SDS011;1025;42.686;23.350;2023-12-20T09:45:05;77.97;;;43.47;;
2039;SDS011;1025;42.686;23.350;2023-12-20T09:47:36;85.23;;;45.10;;
2039;SDS011;1025;42.686;23.350;2023-12-20T09:50:03;87.70;;;45.27;;
2039;SDS011;1025;42.686;23.350;2023-12-20T09:52:29;83.07;;;46.43;;
2039;SDS011;1025;42.686;23.350;2023-12-20T09:54:56;77.80;;;47.67;;
2039;SDS011;1025;42.686;23.350;2023-12-20T09:57:23;82.27;;;44.10;;
2039;SDS011;1025;42.686;23.350;2023-12-20T09:59:50;87.17;;;45.50;;
2039;SDS011;1025;42.686;23.350;2023-12-20T10:02:16;82.50;;;43.47;;
2039;SDS011;1025;42.686;23.350;2023-12-20T10:04:46;88.93;;;50.03;;
2039;SDS011;1025;42.686;23.350;2023-12-20T10:07:13;91.97;;;45.70;;
2039;SDS011;1025;42.686;23.350;2023-12-20T10:09:40;85.10;;;46.97;;
2039;SDS011;1025;42.686;23.350;2023-12-20T10:12:07;88.70;;;46.27;;
2039;SDS011;1025;42.686;23.350;2023-12-20T10:14:33;83.33;;;44.83;;
2039;SDS011;1025;42.686;23.350;2023-12-20T10:17:01;82.05;;;45.17;;
2039;SDS011;1025;42.686;23.350;2023-12-20T10:19:28;70.80;;;41.80;;
2039;SDS011;1025;42.686;23.350;2023-12-20T10:21:56;77.10;;;44.90;;
2039;SDS011;1025;42.686;23.350;2023-12-20T10:24:23;90.00;;;49.90;;
2039;SDS011;1025;42.686;23.350;2023-12-20T10:26:55;101.00;;;48.87;;
2039;SDS011;1025;42.686;23.350;2023-12-20T10:29:27;86.00;;;45.87;;
2039;SDS011;1025;42.686;23.350;2023-12-20T10:31:53;77.27;;;47.30;;
2039;SDS011;1025;42.686;23.350;2023-12-20T10:34:22;80.77;;;47.37;;
2039;SDS011;1025;42.686;23.350;2023-12-20T10:36:49;90.23;;;47.60;;
2039;SDS011;1025;42.686;23.350;2023-12-20T10:39:17;91.70;;;49.13;;
2039;SDS011;1025;42.686;23.350;2023-12-20T10:41:45;96.87;;;51.40;;
2039;SDS011;1025;42.686;23.350;2023-12-20T10:44:12;89.93;;;53.70;;
2039;SDS011;1025;42.686;23.350;2023-12-20T10:46:40;84.87;;;48.53;;
2039;SDS011;1025;42.686;23.350;2023-12-20T10:49:12;82.77;;;48.17;;
2039;SDS011;1025;42.686;23.350;2023-12-20T10:51:40;99.07;;;52.47;;
2039;SDS011;1025;42.686;23.350;2023-12-20T10:54:06;99.03;;;53.67;;
2039;SDS011;1025;42.686;23.350;2023-12-20T10:56:35;121.37;;;52.63;;
2039;SDS011;1025;42.686;23.350;2023-12-20T10:59:02;95.60;;;52.30;;
2039;SDS011;1025;42.686;23.350;2023-12-20T11:01:30;94.77;;;54.17;;
2039;SDS011;1025;42.686;23.350;2023-12-20T11:03:57;101.40;;;53.53;;
2039;SDS011;1025;42.686;23.350;2023-12-20T11:06:26;91.77;;;57.50;;
2039;SDS011;1025;42.686;23.350;2023-12-20T11:08:56;114.10;;;58.97;;
2039;SDS011;1025;42.686;23.350;2023-12-20T11:11:34;93.70;;;53.10;;
2039;SDS011;1025;42.686;23.350;2023-12-20T11:14:03;102.97;;;54.90;;
2039;SDS011;1025;42.686;23.350;2023-12-20T11:16:31;100.93;;;56.90;;
2039;SDS011;1025;42.686;23.350;2023-12-20T11:18:59;98.90;;;55.70;;
2039;SDS011;1025;42.686;23.350;2023-12-20T11:21:30;85.90;;;51.17;;
2039;SDS011;1025;42.686;23.350;2023-12-20T11:24:00;85.47;;;52.27;;
2039;SDS011;1025;42.686;23.350;2023-12-20T11:26:26;80.60;;;50.33;;
2039;SDS011;1025;42.686;23.350;2023-12-20T11:28:53;89.17;;;52.60;;
2039;SDS011;1025;42.686;23.350;2023-12-20T11:31:21;86.13;;;54.57;;
2039;SDS011;1025;42.686;23.350;2023-12-20T11:33:48;82.97;;;52.10;;
2039;SDS011;1025;42.686;23.350;2023-12-20T11:36:18;102.97;;;55.77;;
2039;SDS011;1025;42.686;23.350;2023-12-20T11:38:53;84.03;;;50.30;;
2039;SDS011;1025;42.686;23.350;2023-12-20T11:41:20;85.53;;;51.13;;
2039;SDS011;1025;42.686;23.350;2023-12-20T11:43:48;87.63;;;50.63;;
2039;SDS011;1025;42.686;23.350;2023-12-20T11:46:14;70.83;;;46.83;;
2039;SDS011;1025;42.686;23.350;2023-12-20T11:48:42;75.50;;;46.90;;
2039;SDS011;1025;42.686;23.350;2023-12-20T11:51:10;73.23;;;47.50;;
2039;SDS011;1025;42.686;23.350;2023-12-20T11:53:37;68.50;;;48.93;;
2039;SDS011;1025;42.686;23.350;2023-12-20T11:56:04;65.80;;;45.30;;
2039;SDS011;1025;42.686;23.350;2023-12-20T11:58:32;80.77;;;52.87;;
2039;SDS011;1025;42.686;23.350;2023-12-20T12:00:58;81.23;;;52.20;;
2039;SDS011;1025;42.686;23.350;2023-12-20T12:03:27;90.13;;;53.80;;
2039;SDS011;1025;42.686;23.350;2023-12-20T12:05:55;72.53;;;46.27;;
2039;SDS011;1025;42.686;23.350;2023-12-20T12:08:22;88.80;;;51.33;;
2039;SDS011;1025;42.686;23.350;2023-12-20T12:10:48;86.33;;;52.93;;
2039;SDS011;1025;42.686;23.350;2023-12-20T12:13:15;87.57;;;51.10;;
2039;SDS011;1025;42.686;23.350;2023-12-20T12:15:42;78.73;;;48.10;;
2039;SDS011;1025;42.686;23.350;2023-12-20T12:18:09;79.90;;;53.60;;
2039;SDS011;1025;42.686;23.350;2023-12-20T12:20:36;81.27;;;49.53;;
2039;SDS011;1025;42.686;23.350;2023-12-20T12:23:04;84.40;;;50.17;;
2039;SDS011;1025;42.686;23.350;2023-12-20T12:25:32;77.73;;;51.53;;
2039;SDS011;1025;42.686;23.350;2023-12-20T12:27:59;75.20;;;48.30;;
2039;SDS011;1025;42.686;23.350;2023-12-20T12:30:25;73.63;;;48.10;;
2039;SDS011;1025;42.686;23.350;2023-12-20T12:32:52;79.63;;;47.17;;
2039;SDS011;1025;42.686;23.350;2023-12-20T12:35:19;96.57;;;53.37;;
2039;SDS011;1025;42.686;23.350;2023-12-20T12:37:46;90.00;;;52.47;;
2039;SDS011;1025;42.686;23.350;2023-12-20T12:40:14;73.03;;;49.23;;
2039;SDS011;1025;42.686;23.350;2023-12-20T12:42:41;98.90;;;53.77;;
2039;SDS011;1025;42.686;23.350;2023-12-20T12:45:08;83.23;;;51.43;;
2039;SDS011;1025;42.686;23.350;2023-12-20T12:47:36;72.03;;;47.63;;
2039;SDS011;1025;42.686;23.350;2023-12-20T12:50:03;102.47;;;54.47;;
2039;SDS011;1025;42.686;23.350;2023-12-20T12:52:30;86.57;;;51.50;;
2039;SDS011;1025;42.686;23.350;2023-12-20T12:54:56;84.83;;;51.43;;
2039;SDS011;1025;42.686;23.350;2023-12-20T12:57:25;97.17;;;58.67;;
2039;SDS011;1025;42.686;23.350;2023-12-20T12:59:51;105.63;;;62.60;;
2039;SDS011;1025;42.686;23.350;2023-12-20T13:02:18;136.37;;;64.33;;
2039;SDS011;1025;42.686;23.350;2023-12-20T13:04:44;110.97;;;62.63;;
2039;SDS011;1025;42.686;23.350;2023-12-20T13:07:11;102.90;;;58.03;;
2039;SDS011;1025;42.686;23.350;2023-12-20T13:09:38;104.13;;;59.60;;
2039;SDS011;1025;42.686;23.350;2023-12-20T13:12:05;91.07;;;55.07;;
2039;SDS011;1025;42.686;23.350;2023-12-20T13:14:34;93.67;;;57.87;;
2039;SDS011;1025;42.686;23.350;2023-12-20T13:17:02;100.20;;;58.90;;
2039;SDS011;1025;42.686;23.350;2023-12-20T13:19:29;111.80;;;60.93;;
2039;SDS011;1025;42.686;23.350;2023-12-20T13:21:56;104.73;;;59.50;;
2039;SDS011;1025;42.686;23.350;2023-12-20T13:24:23;104.67;;;60.80;;
2039;SDS011;1025;42.686;23.350;2023-12-20T13:26:50;110.27;;;63.80;;
2039;SDS011;1025;42.686;23.350;2023-12-20T13:29:16;108.70;;;59.17;;
2039;SDS011;1025;42.686;23.350;2023-12-20T13:31:44;108.00;;;59.40;;
2039;SDS011;1025;42.686;23.350;2023-12-20T13:34:11;104.93;;;54.70;;
2039;SDS011;1025;42.686;23.350;2023-12-20T13:36:38;90.13;;;55.17;;
2039;SDS011;1025;42.686;23.350;2023-12-20T13:39:04;103.97;;;52.40;;
2039;SDS011;1025;42.686;23.350;2023-12-20T13:41:32;101.40;;;55.23;;
2039;SDS011;1025;42.686;23.350;2023-12-20T13:43:58;103.37;;;54.47;;
2039;SDS011;1025;42.686;23.350;2023-12-20T13:46:26;96.23;;;57.13;;
2039;SDS011;1025;42.686;23.350;2023-12-20T13:48:55;84.43;;;44.60;;
2039;SDS011;1025;42.686;23.350;2023-12-20T13:51:21;89.73;;;46.23;;
2039;SDS011;1025;42.686;23.350;2023-12-20T13:53:48;97.33;;;50.30;;
2039;SDS011;1025;42.686;23.350;2023-12-20T13:56:15;100.50;;;53.90;;
2039;SDS011;1025;42.686;23.350;2023-12-20T13:58:42;108.93;;;56.47;;
2039;SDS011;1025;42.686;23.350;2023-12-20T14:01:09;112.43;;;56.20;;
2039;SDS011;1025;42.686;23.350;2023-12-20T14:03:37;97.50;;;50.73;;
2039;SDS011;1025;42.686;23.350;2023-12-20T14:06:08;89.37;;;49.70;;
2039;SDS011;1025;42.686;23.350;2023-12-20T14:08:35;103.47;;;51.87;;
2039;SDS011;1025;42.686;23.350;2023-12-20T14:11:02;100.63;;;53.47;;
2039;SDS011;1025;42.686;23.350;2023-12-20T14:13:29;101.40;;;58.37;;
2039;SDS011;1025;42.686;23.350;2023-12-20T14:15:56;108.03;;;51.80;;
2039;SDS011;1025;42.686;23.350;2023-12-20T14:18:24;114.83;;;58.10;;
2039;SDS011;1025;42.686;23.350;2023-12-20T14:20:50;96.07;;;54.70;;
2039;SDS011;1025;42.686;23.350;2023-12-20T14:23:19;96.20;;;57.53;;
2039;SDS011;1025;42.686;23.350;2023-12-20T14:25:46;99.53;;;53.67;;